createdAt,value
2019-03-02T00:02:25.436Z,12.40
2019-03-02T00:04:56.051Z,11.50
2019-03-02T00:07:27.405Z,10.70
2019-03-02T00:09:57.866Z,11.30
2019-03-02T00:12:28.769Z,12.07
2019-03-02T00:15:01.471Z,11.10
2019-03-02T00:17:31.946Z,10.73
2019-03-02T00:20:02.405Z,11.33
2019-03-02T00:22:32.860Z,11.80
2019-03-02T00:25:03.296Z,11.47
2019-03-02T00:27:33.773Z,10.60
2019-03-02T00:30:04.433Z,10.80
2019-03-02T00:32:34.859Z,11.30
2019-03-02T00:35:07.179Z,12.10
2019-03-02T00:37:37.919Z,11.77
2019-03-02T00:40:08.675Z,10.53
2019-03-02T00:42:39.095Z,10.50
2019-03-02T00:45:10.616Z,12.30
2019-03-02T00:47:41.732Z,11.23
2019-03-02T00:50:12.596Z,10.87
2019-03-02T00:52:43.099Z,11.17
2019-03-02T00:55:13.609Z,10.40
2019-03-02T00:57:44.044Z,11.40
2019-03-02T01:00:16.236Z,10.73
2019-03-02T01:02:46.709Z,9.97
2019-03-02T01:05:17.392Z,8.77
2019-03-02T01:07:47.782Z,8.50
2019-03-02T01:10:19.053Z,11.07
2019-03-02T01:12:50.597Z,9.10
2019-03-02T01:15:21.036Z,10.10
2019-03-02T01:17:52.094Z,9.67
2019-03-02T01:20:24.839Z,9.90
2019-03-02T01:22:54.634Z,7.60
2019-03-02T01:25:25.092Z,8.83
2019-03-02T01:27:55.546Z,10.03
2019-03-02T01:30:26.599Z,9.90
2019-03-02T01:32:58.423Z,8.83
2019-03-02T01:35:28.867Z,8.20
2019-03-02T01:37:59.316Z,8.97
2019-03-02T01:40:29.838Z,8.37
2019-03-02T01:43:01.939Z,8.30
2019-03-02T01:45:32.502Z,8.27
2019-03-02T01:48:02.952Z,11.13
2019-03-02T01:50:33.362Z,7.70
2019-03-02T01:53:06.552Z,8.23
2019-03-02T01:55:35.949Z,7.23
2019-03-02T01:58:06.382Z,6.73
2019-03-02T02:00:36.790Z,7.60
2019-03-02T02:03:08.563Z,6.97
2019-03-02T02:05:39.490Z,8.03
2019-03-02T02:08:09.911Z,7.30
2019-03-02T02:10:43.467Z,7.17
2019-03-02T02:13:12.538Z,6.33
2019-03-02T02:15:42.908Z,7.70
2019-03-02T02:18:13.334Z,7.30
2019-03-02T02:20:46.918Z,7.40
2019-03-02T02:23:15.880Z,7.17
2019-03-02T02:25:46.319Z,7.60
2019-03-02T02:28:16.749Z,7.00
2019-03-02T02:30:47.197Z,5.70
2019-03-02T02:33:17.611Z,6.30
2019-03-02T02:35:47.990Z,5.97
2019-03-02T02:38:18.449Z,5.73
2019-03-02T02:40:48.910Z,5.87
2019-03-02T02:43:22.127Z,6.00
2019-03-02T02:45:53.692Z,6.70
2019-03-02T02:48:26.303Z,8.27
2019-03-02T02:50:55.779Z,7.10
2019-03-02T02:53:26.242Z,6.80
2019-03-02T02:55:56.659Z,8.90
2019-03-02T02:58:27.102Z,7.00
2019-03-02T03:00:57.530Z,8.10
2019-03-02T03:03:27.945Z,8.07
2019-03-02T03:05:58.479Z,8.70
2019-03-02T03:08:45.495Z,7.17
2019-03-02T03:11:16.508Z,6.87
2019-03-02T03:13:46.991Z,6.30
2019-03-02T03:16:18.050Z,6.00
2019-03-02T03:18:52.161Z,4.93
2019-03-02T03:21:26.888Z,6.00
2019-03-02T03:23:54.137Z,5.37
2019-03-02T03:26:24.732Z,6.47
2019-03-02T03:28:55.273Z,5.83
2019-03-02T03:31:26.840Z,6.20
2019-03-02T03:33:57.901Z,5.50
2019-03-02T03:36:30.045Z,5.97
2019-03-02T03:39:02.752Z,5.07
2019-03-02T03:41:32.609Z,5.67
2019-03-02T03:44:03.034Z,5.63
2019-03-02T03:46:33.437Z,5.77
2019-03-02T03:49:03.869Z,5.47
2019-03-02T03:51:34.278Z,4.20
2019-03-02T03:54:06.767Z,4.67
2019-03-02T03:56:37.780Z,5.50
2019-03-02T03:59:09.029Z,4.90
2019-03-02T04:01:39.445Z,4.90
2019-03-02T04:04:10.151Z,4.87
2019-03-02T04:06:40.578Z,5.20
2019-03-02T04:09:11.124Z,5.40
2019-03-02T04:11:42.018Z,5.27
2019-03-02T04:14:14.007Z,4.70
2019-03-02T04:16:44.408Z,4.87
2019-03-02T04:19:23.372Z,5.93
2019-03-02T04:21:53.815Z,5.60
2019-03-02T04:24:24.249Z,4.43
2019-03-02T04:26:54.650Z,6.30
2019-03-02T04:29:25.046Z,4.73
2019-03-02T04:31:55.500Z,4.90
2019-03-02T04:34:25.932Z,4.67
2019-03-02T04:36:56.347Z,4.83
2019-03-02T04:39:26.759Z,5.00
2019-03-02T04:41:57.300Z,5.93
2019-03-02T04:44:29.613Z,5.10
2019-03-02T04:46:59.903Z,5.53
2019-03-02T04:49:30.348Z,4.40
2019-03-02T04:52:00.749Z,4.10
2019-03-02T04:54:31.175Z,4.30
2019-03-02T04:57:01.643Z,4.60
2019-03-02T04:59:32.074Z,4.93
2019-03-02T05:02:02.490Z,4.77
2019-03-02T05:04:33.170Z,4.60
2019-03-02T05:07:03.597Z,5.50
2019-03-02T05:09:34.004Z,4.80
2019-03-02T05:12:04.396Z,4.33
2019-03-02T05:14:36.690Z,3.70
2019-03-02T05:17:07.587Z,4.37
2019-03-02T05:19:38.893Z,4.50
2019-03-02T05:22:09.345Z,3.53
2019-03-02T05:24:40.608Z,4.37
2019-03-02T05:27:12.168Z,4.57
2019-03-02T05:29:42.585Z,4.60
2019-03-02T05:32:16.083Z,4.30
2019-03-02T05:34:45.179Z,5.00
2019-03-02T05:37:15.828Z,4.40
2019-03-02T05:39:46.240Z,4.00
2019-03-02T05:42:16.689Z,4.17
2019-03-02T05:44:47.138Z,4.50
2019-03-02T05:47:17.531Z,4.43
2019-03-02T05:49:50.815Z,4.40
2019-03-02T05:52:20.077Z,3.97
2019-03-02T05:54:50.960Z,5.07
2019-03-02T05:57:21.417Z,5.13
2019-03-02T05:59:51.810Z,4.60
2019-03-02T06:02:22.250Z,4.03
2019-03-02T06:04:53.618Z,4.03
2019-03-02T06:07:24.846Z,4.90
2019-03-02T06:09:55.294Z,3.97
2019-03-02T06:12:25.732Z,5.33
2019-03-02T06:14:56.137Z,5.23
2019-03-02T06:17:29.798Z,4.37
2019-03-02T06:19:59.342Z,4.43
2019-03-02T06:22:30.530Z,4.33
2019-03-02T06:25:00.980Z,4.10
2019-03-02T06:27:31.513Z,5.33
2019-03-02T06:30:04.879Z,4.80
2019-03-02T06:32:34.158Z,5.53
2019-03-02T06:35:04.829Z,4.37
2019-03-02T06:37:35.258Z,4.00
2019-03-02T06:40:06.317Z,4.33
2019-03-02T06:42:36.741Z,5.33
2019-03-02T06:45:10.346Z,4.60
2019-03-02T06:47:40.812Z,4.37
2019-03-02T06:50:12.977Z,3.97
2019-03-02T06:52:43.500Z,4.80
2019-03-02T06:55:14.233Z,4.87
2019-03-02T06:57:49.933Z,4.93
2019-03-02T07:00:19.319Z,4.63
2019-03-02T07:02:49.757Z,5.43
2019-03-02T07:05:20.280Z,5.00
2019-03-02T07:07:53.750Z,5.10
2019-03-02T07:10:23.549Z,7.97
2019-03-02T07:12:56.413Z,9.33
2019-03-02T07:15:26.819Z,8.20
2019-03-02T07:18:06.506Z,7.00
2019-03-02T07:20:39.888Z,5.43
2019-03-02T07:23:10.293Z,8.07
2019-03-02T07:25:44.120Z,6.50
2019-03-02T07:28:14.244Z,9.20
2019-03-02T07:30:44.695Z,7.57
2019-03-02T07:33:15.148Z,8.43
2019-03-02T07:35:45.570Z,10.00
2019-03-02T07:38:19.943Z,12.63
2019-03-02T07:40:50.064Z,12.53
2019-03-02T07:43:20.507Z,14.00
2019-03-02T07:45:50.928Z,12.77
2019-03-02T07:48:21.587Z,14.83
2019-03-02T07:50:52.017Z,13.30
2019-03-02T07:53:24.990Z,12.43
2019-03-02T07:55:57.419Z,15.30
2019-03-02T07:58:29.848Z,13.17
2019-03-02T08:01:00.719Z,15.50
2019-03-02T08:03:31.124Z,18.30
2019-03-02T08:06:01.589Z,13.47
2019-03-02T08:08:34.325Z,12.50
2019-03-02T08:11:04.898Z,14.17
2019-03-02T08:13:36.460Z,15.83
2019-03-02T08:16:07.617Z,14.90
2019-03-02T08:18:38.268Z,13.80
2019-03-02T08:21:08.816Z,14.27
2019-03-02T08:23:39.365Z,14.57
2019-03-02T08:26:09.818Z,15.17
2019-03-02T08:28:42.043Z,15.60
2019-03-02T08:31:13.303Z,15.93
2019-03-02T08:33:46.122Z,17.23
2019-03-02T08:36:16.955Z,16.37
2019-03-02T08:38:48.519Z,18.83
2019-03-02T08:41:19.070Z,17.80
2019-03-02T08:43:49.537Z,18.47
2019-03-02T08:46:20.263Z,20.17
2019-03-02T08:48:51.080Z,17.40
2019-03-02T08:51:21.758Z,17.90
2019-03-02T08:53:52.370Z,18.97
2019-03-02T08:56:22.837Z,18.97
2019-03-02T08:58:53.314Z,17.87
2019-03-02T09:01:26.846Z,19.00
2019-03-02T09:03:57.427Z,18.60
2019-03-02T09:06:30.932Z,21.00
2019-03-02T09:09:00.716Z,19.87
2019-03-02T09:11:31.618Z,20.10
2019-03-02T09:14:02.063Z,21.57
2019-03-02T09:16:32.956Z,18.13
2019-03-02T09:19:03.527Z,20.30
2019-03-02T09:21:34.006Z,20.10
2019-03-02T09:24:04.727Z,18.17
2019-03-02T09:26:35.317Z,17.90
2019-03-02T09:29:05.858Z,20.40
2019-03-02T09:31:39.773Z,21.77
2019-03-02T09:34:10.743Z,20.23
2019-03-02T09:36:41.149Z,20.17
2019-03-02T09:39:11.960Z,20.87
2019-03-02T09:41:44.889Z,17.70
2019-03-02T09:44:15.161Z,20.73
2019-03-02T09:46:47.382Z,23.60
2019-03-02T09:49:18.521Z,19.47
2019-03-02T09:51:52.337Z,21.80
2019-03-02T09:54:23.323Z,19.07
2019-03-02T09:56:54.346Z,19.50
2019-03-02T09:59:25.336Z,20.77
2019-03-02T10:01:55.922Z,22.50
2019-03-02T10:04:26.635Z,20.73
2019-03-02T10:06:57.958Z,22.77
2019-03-02T10:09:31.444Z,22.33
2019-03-02T10:12:03.266Z,21.30
2019-03-02T10:14:35.160Z,24.37
2019-03-02T10:17:06.714Z,22.40
2019-03-02T10:19:37.322Z,21.70
2019-03-02T10:22:08.241Z,23.13
2019-03-02T10:24:39.786Z,22.07
2019-03-02T10:27:11.176Z,23.03
2019-03-02T10:29:44.360Z,23.30
2019-03-02T10:32:13.863Z,21.70
2019-03-02T10:34:46.018Z,22.63
2019-03-02T10:37:17.336Z,21.70
2019-03-02T10:39:47.835Z,21.47
2019-03-02T10:42:18.319Z,21.37
2019-03-02T10:44:49.313Z,23.60
2019-03-02T10:47:19.761Z,22.10
2019-03-02T10:49:50.634Z,21.17
2019-03-02T10:52:21.451Z,20.23
2019-03-02T10:54:52.043Z,20.50
2019-03-02T10:57:22.543Z,20.77
2019-03-02T10:59:53.284Z,21.60
2019-03-02T11:02:25.782Z,18.33
2019-03-02T11:05:08.317Z,19.93
2019-03-02T11:07:48.803Z,20.23
2019-03-02T11:10:41.630Z,21.03
2019-03-02T11:13:40.302Z,19.10
2019-03-02T11:16:22.815Z,23.57
2019-03-02T11:19:01.249Z,19.57
2019-03-02T11:21:43.398Z,20.30
2019-03-02T11:24:22.809Z,22.17
2019-03-02T11:27:01.420Z,21.50
2019-03-02T11:29:59.158Z,20.77
2019-03-02T11:32:47.639Z,19.43
2019-03-02T11:35:27.436Z,19.00
2019-03-02T11:38:12.095Z,18.77
2019-03-02T11:40:49.500Z,19.23
2019-03-02T11:43:37.516Z,20.60
2019-03-02T11:46:24.256Z,18.83
2019-03-02T11:49:14.305Z,20.33
2019-03-02T11:51:54.270Z,20.13
2019-03-02T11:54:33.426Z,19.10
2019-03-02T11:57:25.506Z,18.80
2019-03-02T12:00:21.407Z,19.07
2019-03-02T12:03:21.594Z,19.00
2019-03-02T12:06:14.029Z,18.13
2019-03-02T12:08:54.832Z,18.03
2019-03-02T12:11:48.556Z,20.50
2019-03-02T12:14:42.959Z,18.53
2019-03-02T12:17:41.007Z,19.13
2019-03-02T12:20:32.806Z,19.07
2019-03-02T12:23:19.662Z,18.27
2019-03-02T12:25:59.366Z,18.00
2019-03-02T12:29:00.831Z,17.43
2019-03-02T12:31:38.082Z,16.83
2019-03-02T12:34:31.006Z,21.10
2019-03-02T12:37:17.414Z,19.90
2019-03-02T12:40:23.292Z,17.60
2019-03-02T12:43:22.967Z,17.03
2019-03-02T12:46:05.128Z,18.60
2019-03-02T12:48:54.645Z,18.70
2019-03-02T12:51:43.124Z,17.63
2019-03-02T12:54:25.574Z,17.20
2019-03-02T12:57:22.408Z,17.03
2019-03-02T13:00:15.654Z,17.03
2019-03-02T13:03:14.281Z,18.17
2019-03-02T13:05:48.628Z,17.30
2019-03-02T13:08:32.197Z,18.00
2019-03-02T13:11:07.923Z,18.90
2019-03-02T13:13:56.626Z,16.70
2019-03-02T13:16:46.348Z,17.17
2019-03-02T13:19:34.197Z,16.03
2019-03-02T13:22:29.548Z,15.33
2019-03-02T13:25:20.977Z,16.87
2019-03-02T13:28:09.091Z,16.53
2019-03-02T13:30:53.411Z,16.80
2019-03-02T13:33:42.535Z,15.53
2019-03-02T13:36:27.957Z,17.20
2019-03-02T13:39:26.616Z,18.30
2019-03-02T13:42:15.671Z,17.13
2019-03-02T13:45:03.865Z,16.63
2019-03-02T13:47:48.810Z,13.43
2019-03-02T13:50:35.950Z,13.80
2019-03-02T13:53:19.942Z,12.53
2019-03-02T13:55:56.455Z,12.90
2019-03-02T13:58:39.699Z,12.20
2019-03-02T14:01:35.382Z,18.23
2019-03-02T14:04:20.018Z,12.17
2019-03-02T14:07:10.400Z,13.10
2019-03-02T14:09:55.456Z,15.20
2019-03-02T14:12:50.801Z,20.50
2019-03-02T14:15:30.100Z,12.77
2019-03-02T14:18:18.329Z,13.07
2019-03-02T14:21:09.142Z,12.60
2019-03-02T14:24:07.681Z,13.57
2019-03-02T14:27:02.141Z,12.10
2019-03-02T14:29:57.782Z,11.20
2019-03-02T14:32:35.344Z,10.23
2019-03-02T14:35:31.362Z,10.90
2019-03-02T14:38:32.865Z,11.20
2019-03-02T14:41:11.122Z,10.47
2019-03-02T14:44:12.679Z,11.10
2019-03-02T14:47:06.012Z,10.50
2019-03-02T14:50:10.743Z,11.10
2019-03-02T14:52:52.092Z,12.00
2019-03-02T14:55:59.976Z,9.80
2019-03-02T14:58:52.224Z,10.97
2019-03-02T15:01:41.360Z,10.03
2019-03-02T15:04:46.086Z,11.30
2019-03-02T15:07:38.384Z,10.70
2019-03-02T15:10:29.108Z,11.07
2019-03-02T15:13:19.644Z,13.00
2019-03-02T15:16:16.400Z,11.13
2019-03-02T15:19:08.936Z,11.20
2019-03-02T15:22:20.288Z,9.30
2019-03-02T15:24:57.428Z,12.10
2019-03-02T15:27:33.694Z,12.43
2019-03-02T15:30:23.181Z,11.00
2019-03-02T15:33:16.929Z,11.60
2019-03-02T15:35:58.425Z,10.53
2019-03-02T15:38:39.987Z,10.20
2019-03-02T15:41:26.166Z,9.00
2019-03-02T15:44:22.402Z,9.23
2019-03-02T15:47:13.746Z,10.00
2019-03-02T15:49:55.825Z,8.57
2019-03-02T15:52:35.089Z,8.50
2019-03-02T15:55:28.205Z,5.50
2019-03-02T15:58:29.751Z,6.03
2019-03-02T16:01:23.139Z,3.13
2019-03-02T16:04:31.882Z,2.90
2019-03-02T16:07:23.844Z,3.03
2019-03-02T16:10:28.789Z,3.30
2019-03-02T16:13:20.550Z,3.17
2019-03-02T16:16:04.701Z,3.73
2019-03-02T16:19:06.458Z,3.77
2019-03-02T16:21:57.155Z,3.73
2019-03-02T16:25:04.933Z,4.03
2019-03-02T16:27:49.821Z,3.97
2019-03-02T16:30:44.920Z,3.00
2019-03-02T16:33:49.638Z,3.40
2019-03-02T16:36:40.122Z,3.00
2019-03-02T16:39:30.105Z,3.53
2019-03-02T16:42:25.571Z,4.43
2019-03-02T16:45:21.084Z,4.17
2019-03-02T16:48:24.975Z,2.50
2019-03-02T16:51:22.346Z,3.17
2019-03-02T16:54:11.803Z,3.90
2019-03-02T16:56:53.927Z,3.93
2019-03-02T16:59:41.979Z,3.33
2019-03-02T17:02:23.431Z,3.60
2019-03-02T17:05:31.843Z,3.53
2019-03-02T17:08:22.180Z,3.97
2019-03-02T17:11:01.156Z,3.90
2019-03-02T17:13:53.506Z,4.00
2019-03-02T17:16:39.701Z,3.60
2019-03-02T17:19:44.190Z,4.43
2019-03-02T17:22:28.889Z,4.10
2019-03-02T17:25:18.684Z,3.00
2019-03-02T17:28:02.935Z,3.00
2019-03-02T17:31:07.622Z,2.67
2019-03-02T17:34:03.911Z,2.20
2019-03-02T17:36:47.017Z,3.30
2019-03-02T17:39:37.901Z,2.60
2019-03-02T17:42:44.751Z,12.47
2019-03-02T17:45:52.672Z,5.67
2019-03-02T17:48:42.130Z,7.27
2019-03-02T17:51:25.303Z,7.33
2019-03-02T17:54:13.847Z,3.70
2019-03-02T17:57:17.668Z,2.50
2019-03-02T18:00:09.541Z,3.27
2019-03-02T18:02:58.946Z,2.87
2019-03-02T18:05:57.791Z,4.10
2019-03-02T18:08:56.412Z,2.60
2019-03-02T18:11:50.344Z,3.20
2019-03-02T18:14:41.053Z,3.80
2019-03-02T18:17:24.604Z,2.93
2019-03-02T18:19:55.122Z,4.10
2019-03-02T18:22:25.984Z,3.57
2019-03-02T18:24:56.454Z,3.27
2019-03-02T18:27:26.943Z,3.00
2019-03-02T18:29:57.700Z,3.10
2019-03-02T18:32:30.095Z,3.70
2019-03-02T18:35:02.700Z,3.60
2019-03-02T18:37:33.590Z,3.60
2019-03-02T18:40:04.606Z,3.47
2019-03-02T18:42:35.221Z,3.10
2019-03-02T18:45:06.846Z,3.00
2019-03-02T18:47:37.562Z,4.10
2019-03-02T18:50:32.436Z,3.90
2019-03-02T18:53:06.198Z,4.77
2019-03-02T18:55:37.430Z,4.40
2019-03-02T18:58:09.698Z,3.70
2019-03-02T19:00:44.722Z,4.00
2019-03-02T19:03:15.412Z,4.20
2019-03-02T19:05:50.101Z,4.27
2019-03-02T19:08:18.739Z,4.73
2019-03-02T19:10:49.667Z,3.80
2019-03-02T19:13:20.473Z,4.37
2019-03-02T19:15:53.941Z,4.27
2019-03-02T19:18:23.447Z,4.10
2019-03-02T19:20:54.649Z,4.00
2019-03-02T19:23:25.665Z,3.53
2019-03-02T19:25:56.321Z,3.73
2019-03-02T19:28:27.257Z,3.67
2019-03-02T19:30:57.884Z,4.17
2019-03-02T19:33:28.411Z,3.60
2019-03-02T19:35:58.996Z,4.63
2019-03-02T19:38:29.543Z,3.00
2019-03-02T19:41:00.251Z,2.60
2019-03-02T19:43:30.979Z,3.57
2019-03-02T19:46:02.608Z,3.17
2019-03-02T19:48:33.263Z,2.80
2019-03-02T19:51:03.708Z,2.53
2019-03-02T19:53:34.151Z,3.80
2019-03-02T19:56:04.788Z,3.13
2019-03-02T19:58:35.291Z,3.03
2019-03-02T20:01:08.476Z,2.90
2019-03-02T20:03:39.340Z,3.00
2019-03-02T20:06:09.869Z,4.07
2019-03-02T20:08:40.742Z,2.83
2019-03-02T20:11:11.399Z,3.70
2019-03-02T20:13:42.345Z,3.40
2019-03-02T20:16:13.492Z,2.10
2019-03-02T20:18:44.153Z,3.80
2019-03-02T20:21:14.645Z,2.40
2019-03-02T20:23:45.201Z,2.53
2019-03-02T20:26:16.033Z,2.77
2019-03-02T20:28:46.547Z,2.63
2019-03-02T20:31:17.183Z,1.80
2019-03-02T20:33:48.212Z,1.70
2019-03-02T20:36:19.138Z,2.43
2019-03-02T20:38:49.809Z,2.43
2019-03-02T20:41:20.297Z,1.90
2019-03-02T20:43:50.829Z,1.93
2019-03-02T20:46:21.382Z,2.27
2019-03-02T20:48:51.827Z,2.03
2019-03-02T20:51:22.491Z,1.80
2019-03-02T20:53:52.964Z,1.63
2019-03-02T20:56:23.476Z,2.20
2019-03-02T20:58:54.328Z,2.30
2019-03-02T21:01:26.888Z,2.40
2019-03-02T21:03:57.610Z,2.50
2019-03-02T21:06:28.126Z,2.27
2019-03-02T21:08:58.599Z,1.90
2019-03-02T21:11:29.741Z,2.90
2019-03-02T21:14:00.221Z,2.63
2019-03-02T21:16:30.788Z,2.37
2019-03-02T21:19:01.339Z,2.13
2019-03-02T21:21:31.866Z,2.20
2019-03-02T21:24:02.599Z,2.87
2019-03-02T21:26:33.083Z,3.57
2019-03-02T21:29:03.528Z,2.33
2019-03-02T21:31:34.177Z,4.27
2019-03-02T21:34:04.941Z,4.70
2019-03-02T21:36:38.312Z,4.03
2019-03-02T21:39:09.237Z,5.90
2019-03-02T21:41:40.002Z,3.87
2019-03-02T21:44:10.606Z,3.50
2019-03-02T21:46:41.352Z,6.00
2019-03-02T21:49:11.859Z,5.90
2019-03-02T21:51:42.827Z,3.33
2019-03-02T21:54:13.580Z,4.40
2019-03-02T21:56:44.085Z,2.90
2019-03-02T21:59:14.821Z,3.10
2019-03-02T22:01:46.098Z,2.70
2019-03-02T22:04:16.644Z,3.20
2019-03-02T22:06:47.193Z,3.27
2019-03-02T22:09:17.715Z,4.90
2019-03-02T22:11:48.440Z,3.77
2019-03-02T22:14:19.363Z,2.90
2019-03-02T22:16:50.227Z,3.30
2019-03-02T22:19:20.676Z,2.60
2019-03-02T22:21:51.799Z,2.87
2019-03-02T22:24:22.496Z,2.57
2019-03-02T22:26:53.173Z,4.00
2019-03-02T22:29:23.720Z,2.70
2019-03-02T22:31:56.121Z,2.53
2019-03-02T22:34:26.899Z,2.50
2019-03-02T22:36:57.783Z,2.77
2019-03-02T22:39:28.362Z,2.70
2019-03-02T22:41:58.856Z,3.63
2019-03-02T22:44:29.403Z,2.90
2019-03-02T22:46:59.840Z,3.20
2019-03-02T22:49:30.300Z,3.20
2019-03-02T22:52:00.780Z,3.80
2019-03-02T22:54:31.342Z,4.20
2019-03-02T22:57:02.248Z,4.63
2019-03-02T22:59:32.791Z,3.90
2019-03-02T23:02:19.833Z,3.93
2019-03-02T23:04:50.550Z,5.00
2019-03-02T23:07:21.118Z,4.90
2019-03-02T23:09:51.630Z,4.63
2019-03-02T23:12:22.429Z,4.80
2019-03-02T23:14:53.081Z,4.27
2019-03-02T23:17:23.593Z,4.83
2019-03-02T23:19:54.060Z,4.23
2019-03-02T23:22:26.753Z,4.43
2019-03-02T23:24:57.299Z,4.20
2019-03-02T23:27:27.859Z,4.63
2019-03-02T23:29:58.556Z,4.20
2019-03-02T23:32:29.242Z,3.63
2019-03-02T23:34:59.785Z,3.00
2019-03-02T23:37:30.301Z,3.63
2019-03-02T23:40:00.903Z,3.07
2019-03-02T23:42:31.494Z,3.00
2019-03-02T23:45:02.110Z,3.60
2019-03-02T23:47:34.612Z,4.10
2019-03-02T23:50:05.350Z,3.97
2019-03-02T23:52:35.845Z,4.10
2019-03-02T23:55:06.571Z,3.37
2019-03-02T23:57:37.097Z,3.20
